createdAt,value
2024-02-13T00:00:49.340Z,5.33
2024-02-13T00:01:49.263Z,5.33
2024-02-13T00:02:49.465Z,5.30
2024-02-13T00:03:49.400Z,5.30
2024-02-13T00:04:49.235Z,5.33
2024-02-13T00:05:49.273Z,5.31
2024-02-13T00:06:49.210Z,5.30
2024-02-13T00:07:49.206Z,5.27
2024-02-13T00:08:49.353Z,5.27
2024-02-13T00:09:49.162Z,5.25
2024-02-13T00:10:49.161Z,5.27
2024-02-13T00:11:49.182Z,5.24
2024-02-13T00:12:49.138Z,5.21
2024-02-13T00:13:49.124Z,5.20
2024-02-13T00:14:49.150Z,5.15
2024-02-13T00:15:49.102Z,5.21
2024-02-13T00:16:49.101Z,5.20
2024-02-13T00:17:49.185Z,5.20
2024-02-13T00:18:49.233Z,5.15
2024-02-13T00:19:49.110Z,5.18
2024-02-13T00:20:49.127Z,5.18
2024-02-13T00:21:49.004Z,5.20
2024-02-13T00:22:49.065Z,5.12
2024-02-13T00:23:49.185Z,5.15
2024-02-13T00:24:48.987Z,5.10
2024-02-13T00:25:48.989Z,5.10
2024-02-13T00:26:48.998Z,5.10
2024-02-13T00:27:48.949Z,5.06
2024-02-13T00:28:48.932Z,5.02
2024-02-13T00:29:48.975Z,5.04
2024-02-13T00:30:48.904Z,5.06
2024-02-13T00:31:48.916Z,5.02
2024-02-13T00:32:48.948Z,5.03
2024-02-13T00:33:49.012Z,5.04
2024-02-13T00:34:48.905Z,5.02
2024-02-13T00:35:48.939Z,5.04
2024-02-13T00:36:48.848Z,5.06
2024-02-13T00:37:48.824Z,5.10
2024-02-13T00:38:48.910Z,5.06
2024-02-13T00:39:48.814Z,5.03
2024-02-13T00:40:48.783Z,5.04
2024-02-13T00:41:49.048Z,5.06
2024-02-13T00:42:48.745Z,5.06
2024-02-13T00:43:49.455Z,5.04
2024-02-13T00:44:48.772Z,5.06
2024-02-13T00:45:48.862Z,5.04
2024-02-13T00:46:48.757Z,5.03
2024-02-13T00:47:48.831Z,4.97
2024-02-13T00:48:48.836Z,5.02
2024-02-13T00:49:48.708Z,5.00
2024-02-13T00:50:48.769Z,5.00
2024-02-13T00:51:48.693Z,4.99
2024-02-13T00:52:48.671Z,4.96
2024-02-13T00:53:48.772Z,4.96
2024-02-13T00:54:48.695Z,4.94
2024-02-13T00:55:48.601Z,4.96
2024-02-13T00:56:48.742Z,4.96
2024-02-13T00:57:48.655Z,4.96
2024-02-13T00:58:48.680Z,4.94
2024-02-13T00:59:48.627Z,4.97
2024-02-13T01:00:48.698Z,4.97
2024-02-13T01:01:48.532Z,4.99
2024-02-13T01:02:48.648Z,4.92
2024-02-13T01:03:48.525Z,4.91
2024-02-13T01:04:48.661Z,4.88
2024-02-13T01:05:48.502Z,4.96
2024-02-13T01:06:48.525Z,4.97
2024-02-13T01:07:48.441Z,4.96
2024-02-13T01:08:48.464Z,4.96
2024-02-13T01:09:48.412Z,4.96
2024-02-13T01:10:48.411Z,5.00
2024-02-13T01:11:48.518Z,4.99
2024-02-13T01:12:48.388Z,5.00
2024-02-13T01:13:48.359Z,5.02
2024-02-13T01:14:48.394Z,4.94
2024-02-13T01:15:48.358Z,4.96
2024-02-13T01:16:48.342Z,4.91
2024-02-13T01:17:48.446Z,4.88
2024-02-13T01:18:48.384Z,4.89
2024-02-13T01:19:48.395Z,4.88
2024-02-13T01:20:48.337Z,4.89
2024-02-13T01:21:48.270Z,4.88
2024-02-13T01:22:48.261Z,4.88
2024-02-13T01:23:48.319Z,4.85
2024-02-13T01:24:48.237Z,4.84
2024-02-13T01:25:48.218Z,4.84
2024-02-13T01:26:48.305Z,4.84
2024-02-13T01:27:48.197Z,4.77
2024-02-13T01:28:48.196Z,4.82
2024-02-13T01:29:48.227Z,4.85
2024-02-13T01:30:48.169Z,4.80
2024-02-13T01:31:48.160Z,4.82
2024-02-13T01:32:48.170Z,4.80
2024-02-13T01:33:48.237Z,4.80
2024-02-13T01:34:48.187Z,4.78
2024-02-13T01:35:48.163Z,4.75
2024-02-13T01:36:48.111Z,4.77
2024-02-13T01:37:48.102Z,4.75
2024-02-13T01:38:48.126Z,4.77
2024-02-13T01:39:48.074Z,4.78
2024-02-13T01:40:48.033Z,4.78
2024-02-13T01:41:48.072Z,4.75
2024-02-13T01:42:48.063Z,4.73
2024-02-13T01:43:47.991Z,4.70
2024-02-13T01:44:48.069Z,4.72
2024-02-13T01:45:47.968Z,4.73
2024-02-13T01:46:47.973Z,4.72
2024-02-13T01:47:48.094Z,4.73
2024-02-13T01:48:48.038Z,4.75
2024-02-13T01:49:47.911Z,4.78
2024-02-13T01:50:47.926Z,4.78
2024-02-13T01:51:47.907Z,4.77
2024-02-13T01:52:47.899Z,4.75
2024-02-13T01:53:47.949Z,4.73
2024-02-13T01:54:47.912Z,4.67
2024-02-13T01:55:47.846Z,4.70
2024-02-13T01:56:47.989Z,4.72
2024-02-13T01:57:47.828Z,4.73
2024-02-13T01:58:47.813Z,4.69
2024-02-13T01:59:47.824Z,4.67
2024-02-13T02:00:47.790Z,4.66
2024-02-13T02:01:47.774Z,4.65
2024-02-13T02:02:47.886Z,4.63
2024-02-13T02:03:47.797Z,4.63
2024-02-13T02:04:47.748Z,4.62
2024-02-13T02:05:47.798Z,4.60
2024-02-13T02:06:47.738Z,4.59
2024-02-13T02:07:47.714Z,4.60
2024-02-13T02:08:47.768Z,4.60
2024-02-13T02:09:47.686Z,4.63
2024-02-13T02:10:47.714Z,4.60
2024-02-13T02:11:47.667Z,4.60
2024-02-13T02:12:47.633Z,4.59
2024-02-13T02:13:47.649Z,4.63
2024-02-13T02:14:47.634Z,4.60
2024-02-13T02:15:47.598Z,4.63
2024-02-13T02:16:47.642Z,4.66
2024-02-13T02:17:47.674Z,4.67
2024-02-13T02:18:47.733Z,4.67
2024-02-13T02:19:47.563Z,4.69
2024-02-13T02:20:47.608Z,4.66
2024-02-13T02:21:47.515Z,4.63
2024-02-13T02:22:47.533Z,4.69
2024-02-13T02:23:47.527Z,4.67
2024-02-13T02:24:47.477Z,4.72
2024-02-13T02:25:47.499Z,4.72
2024-02-13T02:26:47.517Z,4.73
2024-02-13T02:27:47.443Z,4.72
2024-02-13T02:28:47.441Z,4.72
2024-02-13T02:29:47.502Z,4.70
2024-02-13T02:30:47.564Z,4.73
2024-02-13T02:31:47.397Z,4.72
2024-02-13T02:32:47.494Z,4.69
2024-02-13T02:33:48.203Z,4.69
2024-02-13T02:34:47.439Z,4.67
2024-02-13T02:35:47.463Z,4.69
2024-02-13T02:36:47.361Z,4.72
2024-02-13T02:37:47.320Z,4.69
2024-02-13T02:38:47.331Z,4.72
2024-02-13T02:39:47.287Z,4.73
2024-02-13T02:40:47.299Z,4.73
2024-02-13T02:41:47.325Z,4.73
2024-02-13T02:42:47.261Z,4.73
2024-02-13T02:43:47.316Z,4.72
2024-02-13T02:44:47.292Z,4.70
2024-02-13T02:45:47.218Z,4.69
2024-02-13T02:46:47.239Z,4.72
2024-02-13T02:47:47.246Z,4.67
2024-02-13T02:48:47.282Z,4.70
2024-02-13T02:49:47.255Z,4.67
2024-02-13T02:50:47.188Z,4.66
2024-02-13T02:51:47.158Z,4.69
2024-02-13T02:52:47.159Z,4.69
2024-02-13T02:53:47.137Z,4.69
2024-02-13T02:54:47.113Z,4.73
2024-02-13T02:55:47.088Z,4.72
2024-02-13T02:56:47.274Z,4.73
2024-02-13T02:57:47.113Z,4.73
2024-02-13T02:58:47.103Z,4.70
2024-02-13T02:59:47.098Z,4.69
2024-02-13T03:00:47.072Z,4.67
2024-02-13T03:01:47.024Z,4.69
2024-02-13T03:02:47.080Z,4.65
2024-02-13T03:03:47.029Z,4.66
2024-02-13T03:04:47.099Z,4.67
2024-02-13T03:05:47.058Z,4.69
2024-02-13T03:06:47.031Z,4.65
2024-02-13T03:07:47.401Z,4.66
2024-02-13T03:08:47.053Z,4.63
2024-02-13T03:09:46.936Z,4.65
2024-02-13T03:10:46.904Z,4.66
2024-02-13T03:11:46.944Z,4.65
2024-02-13T03:12:46.890Z,4.60
2024-02-13T03:13:46.872Z,4.65
2024-02-13T03:14:46.920Z,4.59
2024-02-13T03:15:46.876Z,4.59
2024-02-13T03:16:46.876Z,4.58
2024-02-13T03:17:46.905Z,4.55
2024-02-13T03:18:46.938Z,4.54
2024-02-13T03:19:46.857Z,4.54
2024-02-13T03:20:46.832Z,4.52
2024-02-13T03:21:46.766Z,4.55
2024-02-13T03:22:46.779Z,4.52
2024-02-13T03:23:46.790Z,4.50
2024-02-13T03:24:46.737Z,4.51
2024-02-13T03:25:46.722Z,4.50
2024-02-13T03:26:46.780Z,4.50
2024-02-13T03:27:46.699Z,4.47
2024-02-13T03:28:46.705Z,4.45
2024-02-13T03:29:46.741Z,4.45
2024-02-13T03:30:46.659Z,4.44
2024-02-13T03:31:46.652Z,4.40
2024-02-13T03:32:46.753Z,4.40
2024-02-13T03:33:46.795Z,4.37
2024-02-13T03:34:46.675Z,4.40
2024-02-13T03:35:46.634Z,4.41
2024-02-13T03:36:46.614Z,4.37
2024-02-13T03:37:46.593Z,4.42
2024-02-13T03:38:46.580Z,4.37
2024-02-13T03:39:46.555Z,4.41
2024-02-13T03:40:46.546Z,4.41
2024-02-13T03:41:46.639Z,4.40
2024-02-13T03:42:46.674Z,4.37
2024-02-13T03:43:46.492Z,4.44
2024-02-13T03:44:46.674Z,4.42
2024-02-13T03:45:46.499Z,4.41
2024-02-13T03:46:46.501Z,4.45
2024-02-13T03:47:46.641Z,4.47
2024-02-13T03:48:46.597Z,4.47
2024-02-13T03:49:46.487Z,4.48
2024-02-13T03:50:46.461Z,4.45
2024-02-13T03:51:46.402Z,4.45
2024-02-13T03:52:46.388Z,4.44
2024-02-13T03:53:46.569Z,4.44
2024-02-13T03:54:46.376Z,4.45
2024-02-13T03:55:46.360Z,4.40
2024-02-13T03:56:46.399Z,4.37
2024-02-13T03:57:46.328Z,4.41
2024-02-13T03:58:46.335Z,4.42
2024-02-13T03:59:46.349Z,4.42
2024-02-13T04:00:46.308Z,4.41
2024-02-13T04:01:46.303Z,4.37
2024-02-13T04:02:46.330Z,4.40
2024-02-13T04:03:46.277Z,4.40
2024-02-13T04:04:46.272Z,4.42
2024-02-13T04:05:46.307Z,4.42
2024-02-13T04:06:46.283Z,4.41
2024-02-13T04:07:46.208Z,4.40
2024-02-13T04:08:46.274Z,4.42
2024-02-13T04:09:46.176Z,4.41
2024-02-13T04:10:46.165Z,4.41
2024-02-13T04:11:46.268Z,4.37
2024-02-13T04:12:46.133Z,4.37
2024-02-13T04:13:46.127Z,4.42
2024-02-13T04:14:46.162Z,4.44
2024-02-13T04:15:46.096Z,4.47
2024-02-13T04:16:47.676Z,4.51
2024-02-13T04:17:47.684Z,4.50
2024-02-13T04:18:46.704Z,4.50
2024-02-13T04:19:46.155Z,4.45
2024-02-13T04:20:46.068Z,4.51
2024-02-13T04:21:47.651Z,4.54
2024-02-13T04:22:46.195Z,4.51
2024-02-13T04:23:46.202Z,4.52
2024-02-13T04:24:47.324Z,4.54
2024-02-13T04:25:46.006Z,4.52
2024-02-13T04:26:47.565Z,4.51
2024-02-13T05:27:54.036Z,4.48
2024-02-13T08:22:54.145Z,5.74
2024-02-13T08:23:00.590Z,5.68
2024-02-13T08:29:39.191Z,5.83
2024-02-13T08:36:22.785Z,5.90
2024-02-13T08:46:16.282Z,6.97
2024-02-13T08:47:17.428Z,6.98
2024-02-13T08:52:40.894Z,6.61
2024-02-13T08:53:41.024Z,6.43
2024-02-13T08:54:40.252Z,6.33
2024-02-13T08:56:18.004Z,6.41
2024-02-13T08:56:40.353Z,6.31
2024-02-13T08:57:40.525Z,6.25
2024-02-13T08:58:40.228Z,6.18
2024-02-13T08:59:41.714Z,6.21
2024-02-13T09:02:08.198Z,6.54
2024-02-13T09:03:09.181Z,6.49
2024-02-13T09:04:09.211Z,6.64
2024-02-13T09:05:09.247Z,6.62
2024-02-13T09:06:09.361Z,6.56
2024-02-13T09:07:09.135Z,6.49
2024-02-13T09:08:09.105Z,6.54
2024-02-13T09:09:20.809Z,6.49
2024-02-13T09:10:09.079Z,6.54
2024-02-13T09:11:09.064Z,6.48
2024-02-13T09:12:09.370Z,6.41
2024-02-13T09:13:09.109Z,6.58
2024-02-13T09:14:09.029Z,6.81
2024-02-13T09:15:09.047Z,6.87
2024-02-13T09:16:11.438Z,6.76
2024-02-13T09:17:09.044Z,6.67
2024-02-13T09:18:09.090Z,6.66
2024-02-13T09:19:09.977Z,6.71
2024-02-13T09:20:08.980Z,6.74
2024-02-13T09:21:08.983Z,6.71
2024-02-13T09:22:08.928Z,6.58
2024-02-13T09:23:08.908Z,6.64
2024-02-13T09:24:12.472Z,6.58
2024-02-13T09:25:08.925Z,6.74
2024-02-13T09:26:08.885Z,6.98
2024-02-13T09:27:08.863Z,7.21
2024-02-13T09:28:08.864Z,7.20
2024-02-13T09:29:08.894Z,6.95
2024-02-13T09:30:08.895Z,6.89
2024-02-13T09:31:08.859Z,7.10
2024-02-13T09:32:09.034Z,7.06
2024-02-13T09:33:08.877Z,6.88
2024-02-13T09:34:08.918Z,6.87
2024-02-13T09:35:09.448Z,6.94
2024-02-13T09:36:08.795Z,7.21
2024-02-13T09:37:08.785Z,7.21
2024-02-13T09:38:08.727Z,7.34
2024-02-13T09:39:08.751Z,7.43
2024-02-13T09:40:08.712Z,7.40
2024-02-13T09:41:08.694Z,7.39
2024-02-13T09:42:08.677Z,7.34
2024-02-13T09:43:08.814Z,7.32
2024-02-13T09:44:08.660Z,7.42
2024-02-13T09:45:08.710Z,7.31
2024-02-13T09:46:08.638Z,7.17
2024-02-13T09:47:08.601Z,7.31
2024-02-13T09:48:08.692Z,7.53
2024-02-13T09:49:08.737Z,7.49
2024-02-13T09:50:14.969Z,7.39
2024-02-13T09:51:08.629Z,7.61
2024-02-13T09:52:08.544Z,7.67
2024-02-13T09:53:08.529Z,7.82
2024-02-13T09:54:08.684Z,7.97
2024-02-13T09:55:08.596Z,7.89
2024-02-13T09:56:08.516Z,8.08
2024-02-13T09:57:08.531Z,8.00
2024-02-13T09:58:08.469Z,8.22
2024-02-13T09:59:08.453Z,7.68
2024-02-13T10:00:08.473Z,7.77
2024-02-13T10:01:08.481Z,7.74
2024-02-13T10:02:08.420Z,7.87
2024-02-13T10:03:08.671Z,7.90
2024-02-13T10:04:08.495Z,7.87
2024-02-13T10:05:10.386Z,7.79
2024-02-13T10:06:09.397Z,8.07
2024-02-13T10:07:08.438Z,8.37
2024-02-13T10:08:08.334Z,8.34
2024-02-13T10:09:08.364Z,8.28
2024-02-13T10:10:08.564Z,8.43
2024-02-13T10:11:08.348Z,8.10
2024-02-13T10:12:08.296Z,7.93
2024-02-13T10:13:08.314Z,8.08
2024-02-13T10:14:08.303Z,8.18
2024-02-13T10:15:08.479Z,8.04
2024-02-13T10:16:08.242Z,7.86
2024-02-13T10:17:08.217Z,7.98
2024-02-13T10:18:08.375Z,8.10
2024-02-13T10:19:08.291Z,8.30
2024-02-13T10:20:08.329Z,8.43
2024-02-13T10:21:08.209Z,8.11
2024-02-13T10:22:08.163Z,8.29
2024-02-13T10:23:08.191Z,8.44
2024-02-13T10:24:08.768Z,8.15
2024-02-13T10:25:08.165Z,8.08
2024-02-13T10:26:08.137Z,8.34
2024-02-13T10:27:08.209Z,8.30
2024-02-13T10:28:08.081Z,8.20
2024-02-13T10:29:08.087Z,8.25
2024-02-13T10:30:08.132Z,8.77
2024-02-13T10:31:08.062Z,8.59
2024-02-13T10:32:08.039Z,8.83
2024-02-13T10:33:08.144Z,8.91
2024-02-13T10:34:08.016Z,8.55
2024-02-13T10:35:08.056Z,8.16
2024-02-13T10:36:08.961Z,8.22
2024-02-13T10:37:07.988Z,8.34
2024-02-13T10:38:34.741Z,8.48
2024-02-13T10:39:08.902Z,8.47
2024-02-13T10:48:54.680Z,8.52
2024-02-13T10:55:58.169Z,8.45
2024-02-13T10:57:16.711Z,8.44
2024-02-13T10:58:27.777Z,8.25
2024-02-13T10:58:59.087Z,8.47
2024-02-13T11:00:11.384Z,8.63
2024-02-13T11:00:59.147Z,8.38
2024-02-13T11:01:59.123Z,8.33
2024-02-13T11:02:59.093Z,8.58
2024-02-13T11:09:31.909Z,8.95
2024-02-13T11:14:09.021Z,8.73
2024-02-13T11:15:10.312Z,8.65
2024-02-13T11:16:10.211Z,8.71
2024-02-13T11:17:17.033Z,8.96
2024-02-13T11:18:10.048Z,9.40
2024-02-13T11:25:04.128Z,9.61
2024-02-13T11:29:30.588Z,9.68
2024-02-13T11:30:37.717Z,9.39
2024-02-13T11:34:39.662Z,9.11
2024-02-13T11:41:08.190Z,9.02
2024-02-13T11:42:09.151Z,9.17
2024-02-13T11:43:09.127Z,9.15
2024-02-13T11:44:09.806Z,9.11
2024-02-13T11:45:09.359Z,9.11
2024-02-13T11:46:09.142Z,9.26
2024-02-13T11:47:09.086Z,9.18
2024-02-13T11:48:12.303Z,9.38
2024-02-13T11:49:09.205Z,9.35
2024-02-13T11:50:09.108Z,9.20
2024-02-13T11:51:09.050Z,9.32
2024-02-13T11:52:09.036Z,9.57
2024-02-13T11:53:08.988Z,9.91
2024-02-13T11:54:39.471Z,10.44
2024-02-13T11:59:23.204Z,9.93
2024-02-13T12:00:27.936Z,9.84
2024-02-13T12:04:39.724Z,9.36
2024-02-13T12:05:06.124Z,9.29
2024-02-13T12:06:00.085Z,9.43
2024-02-13T12:06:45.166Z,9.48
2024-02-13T12:07:45.084Z,9.64
2024-02-13T12:08:45.051Z,9.79
2024-02-13T12:09:45.049Z,9.97
2024-02-13T12:10:45.017Z,10.26
2024-02-13T12:11:45.058Z,10.22
2024-02-13T12:12:45.255Z,10.25
2024-02-13T12:13:45.552Z,10.08
2024-02-13T12:14:45.067Z,10.15
2024-02-13T12:15:44.971Z,10.26
2024-02-13T12:16:44.963Z,9.99
2024-02-13T12:28:16.520Z,10.09
2024-02-13T12:29:19.244Z,9.99
2024-02-13T12:30:18.402Z,10.34
2024-02-13T12:31:17.460Z,10.05
2024-02-13T12:34:19.144Z,10.42
2024-02-13T12:35:27.949Z,10.18
2024-02-13T12:36:15.535Z,9.89
2024-02-13T12:49:13.453Z,9.31
2024-02-13T12:58:10.709Z,9.46
2024-02-13T12:59:07.280Z,9.57
2024-02-13T13:16:59.917Z,9.57
2024-02-13T13:17:05.270Z,9.23
2024-02-13T13:18:16.550Z,9.28
2024-02-13T14:15:17.938Z,11.04
2024-02-13T14:49:42.589Z,10.05
2024-02-13T15:31:31.022Z,9.74
2024-02-13T15:40:24.560Z,9.65
2024-02-13T15:41:46.404Z,9.68
2024-02-13T15:42:43.054Z,9.66
2024-02-13T15:43:25.510Z,9.64
2024-02-13T15:44:46.555Z,9.64
2024-02-13T15:45:25.727Z,9.56
2024-02-13T15:48:13.607Z,9.53
2024-02-13T15:53:30.376Z,9.53
2024-02-13T15:54:57.807Z,9.56
2024-02-13T15:55:31.565Z,9.48
2024-02-13T15:57:51.686Z,9.47
2024-02-13T15:58:52.667Z,9.50
2024-02-13T15:59:52.864Z,9.51
2024-02-13T16:00:53.534Z,9.47
2024-02-13T16:01:52.579Z,9.48
2024-02-13T16:06:23.754Z,9.46
2024-02-13T16:06:43.928Z,9.46
2024-02-13T16:07:44.890Z,9.42
2024-02-13T16:08:44.112Z,9.43
2024-02-13T16:09:30.917Z,9.47
2024-02-13T16:12:17.171Z,9.47
2024-02-13T16:12:22.534Z,9.54
2024-02-13T16:13:30.759Z,9.54
2024-02-13T16:14:46.691Z,9.47
2024-02-13T16:17:12.926Z,9.42
2024-02-13T16:18:22.674Z,9.40
2024-02-13T16:19:15.023Z,9.38
2024-02-13T16:20:14.266Z,9.39
2024-02-13T16:21:13.798Z,9.39
2024-02-13T16:23:15.393Z,9.46
2024-02-13T16:25:02.072Z,9.47
2024-02-13T16:26:04.854Z,9.46
2024-02-13T16:33:49.789Z,9.43
2024-02-13T16:34:46.340Z,9.40
2024-02-13T16:36:57.017Z,9.39
2024-02-13T16:37:57.875Z,9.36
2024-02-13T16:38:57.944Z,9.36
2024-02-13T16:40:18.177Z,9.33
2024-02-13T16:41:02.685Z,9.32
2024-02-13T16:41:58.133Z,9.35
2024-02-13T16:43:00.056Z,9.35
2024-02-13T16:43:59.345Z,9.36
2024-02-13T16:45:01.554Z,9.33
2024-02-13T16:45:59.511Z,9.35
2024-02-13T16:47:21.184Z,9.35
2024-02-13T16:47:57.998Z,9.33
2024-02-13T16:48:57.879Z,9.32
2024-02-13T16:49:57.907Z,9.32
2024-02-13T16:51:24.042Z,9.31
2024-02-13T17:10:46.080Z,9.36
2024-02-13T19:16:17.433Z,8.56
2024-02-13T19:17:18.374Z,8.59
2024-02-13T19:31:43.770Z,8.43
2024-02-13T20:46:43.428Z,8.40
2024-02-13T20:47:17.851Z,8.43
2024-02-13T20:51:46.256Z,8.45
2024-02-13T20:53:52.466Z,8.55
2024-02-13T20:54:09.875Z,8.55
2024-02-13T20:55:42.733Z,8.52
2024-02-13T20:56:25.295Z,8.53
2024-02-13T20:57:01.346Z,8.53
2024-02-13T20:57:57.923Z,8.55
2024-02-13T21:09:09.774Z,8.50
2024-02-13T21:09:15.833Z,8.50
2024-02-13T21:10:15.790Z,8.56
2024-02-13T21:11:29.673Z,8.56
2024-02-13T21:12:22.117Z,8.58
2024-02-13T21:13:15.808Z,8.59
2024-02-13T21:14:15.172Z,8.59
2024-02-13T21:15:16.797Z,8.59
2024-02-13T21:24:05.383Z,8.61
2024-02-13T21:24:15.940Z,8.59
2024-02-13T21:25:15.673Z,8.62
2024-02-13T21:26:22.337Z,8.59
2024-02-13T21:27:22.636Z,8.62
2024-02-13T21:28:16.370Z,8.61
2024-02-13T21:29:15.672Z,8.59
2024-02-13T21:30:16.650Z,8.58
2024-02-13T21:31:16.129Z,8.59
2024-02-13T21:32:18.907Z,8.56
2024-02-13T21:33:16.182Z,8.55
2024-02-13T21:40:03.105Z,8.59
2024-02-13T21:40:15.728Z,8.59
2024-02-13T21:41:10.424Z,8.62
2024-02-13T21:42:12.895Z,8.61
2024-02-13T21:43:08.705Z,8.62
2024-02-13T21:44:08.673Z,8.62
2024-02-13T21:45:08.739Z,8.62
2024-02-13T21:46:09.124Z,8.62
2024-02-13T21:47:09.354Z,8.65
2024-02-13T21:48:15.880Z,8.63
2024-02-13T21:52:55.220Z,8.62
2024-02-13T21:53:01.966Z,8.65
2024-02-13T21:54:01.110Z,8.63
2024-02-13T21:55:00.977Z,8.63
2024-02-13T21:56:00.958Z,8.63
2024-02-13T21:57:01.000Z,8.59
2024-02-13T21:58:00.993Z,8.59
2024-02-13T21:59:07.948Z,8.66
2024-02-13T22:00:00.864Z,8.61
2024-02-13T22:01:00.784Z,8.59
2024-02-13T22:02:00.751Z,8.61
2024-02-13T22:03:00.774Z,8.58
2024-02-13T22:04:02.281Z,8.58
2024-02-13T22:05:00.725Z,8.58
2024-02-13T22:06:04.164Z,8.61
2024-02-13T22:07:12.281Z,8.61
2024-02-13T22:08:00.872Z,8.62
2024-02-13T22:09:00.854Z,8.61
2024-02-13T22:10:03.635Z,8.62
2024-02-13T22:11:00.876Z,8.62
2024-02-13T22:12:01.310Z,8.63
2024-02-13T22:13:01.206Z,8.65
2024-02-13T22:14:00.722Z,8.63
2024-02-13T22:15:00.813Z,8.61
2024-02-13T22:16:05.475Z,8.61
2024-02-13T22:17:00.787Z,8.63
2024-02-13T22:18:00.852Z,8.61
2024-02-13T22:19:00.657Z,8.62
2024-02-13T22:20:00.708Z,8.63
2024-02-13T22:21:00.520Z,8.63
2024-02-13T22:22:00.692Z,8.66
2024-02-13T22:23:00.468Z,8.76
2024-02-13T22:24:00.514Z,8.77
2024-02-13T22:25:00.473Z,8.73
2024-02-13T22:26:00.440Z,8.71
2024-02-13T22:27:00.476Z,8.73
2024-02-13T22:28:02.029Z,8.73
2024-02-13T22:29:01.913Z,8.70
2024-02-13T22:30:01.224Z,8.70
2024-02-13T22:31:00.363Z,8.70
2024-02-13T22:32:00.600Z,8.70
2024-02-13T22:33:00.405Z,8.73
2024-02-13T22:34:00.565Z,8.71
2024-02-13T22:35:00.431Z,8.76
2024-02-13T22:36:00.349Z,8.77
2024-02-13T22:37:00.282Z,8.81
2024-02-13T22:38:00.432Z,8.83
2024-02-13T22:39:00.409Z,8.77
2024-02-13T22:40:00.384Z,8.81
2024-02-13T22:41:00.254Z,8.80
2024-02-13T22:42:01.159Z,8.80
2024-02-13T22:43:00.208Z,8.81
2024-02-13T22:44:00.187Z,8.84
2024-02-13T22:45:00.465Z,8.87
2024-02-13T22:46:00.195Z,8.84
2024-02-13T22:47:00.182Z,8.87
2024-02-13T22:48:00.382Z,8.89
2024-02-13T22:49:00.172Z,8.92
2024-02-13T22:50:00.258Z,8.89
2024-02-13T22:51:00.390Z,8.86
2024-02-13T22:52:00.138Z,8.84
2024-02-13T22:53:00.285Z,8.91
2024-02-13T22:54:00.332Z,8.89
2024-02-13T22:55:03.411Z,8.92
2024-02-13T22:56:00.039Z,8.94
2024-02-13T22:57:00.393Z,8.92
2024-02-13T22:58:00.782Z,8.95
2024-02-13T22:59:00.237Z,8.94
2024-02-13T23:00:07.020Z,8.95
2024-02-13T23:01:00.010Z,8.94
2024-02-13T23:02:00.669Z,8.89
2024-02-13T23:03:00.001Z,8.91
2024-02-13T23:03:59.961Z,8.87
2024-02-13T23:04:59.957Z,8.86
2024-02-13T23:06:00.640Z,8.87
2024-02-13T23:07:00.666Z,8.84
2024-02-13T23:08:00.104Z,8.81
2024-02-13T23:09:00.061Z,8.80
2024-02-13T23:09:59.863Z,8.83
2024-02-13T23:11:00.571Z,8.84
2024-02-13T23:11:59.899Z,8.84
2024-02-13T23:13:00.080Z,8.79
2024-02-13T23:13:59.838Z,8.79
2024-02-13T23:15:02.904Z,8.77
2024-02-13T23:16:00.122Z,8.77
2024-02-13T23:17:00.038Z,8.76
2024-02-13T23:17:59.870Z,8.77
2024-02-13T23:19:00.064Z,8.76
2024-02-13T23:19:59.804Z,8.74
2024-02-13T23:20:59.765Z,8.73
2024-02-13T23:21:59.725Z,8.71
2024-02-13T23:22:59.726Z,8.73
2024-02-13T23:23:59.745Z,8.73
2024-02-13T23:24:59.709Z,8.73
2024-02-13T23:25:59.663Z,8.71
2024-02-13T23:26:59.692Z,8.70
2024-02-13T23:27:59.650Z,8.68
2024-02-13T23:28:59.901Z,8.66
2024-02-13T23:29:59.932Z,8.70
2024-02-13T23:30:59.627Z,8.71
2024-02-13T23:31:59.608Z,8.70
2024-02-13T23:32:59.661Z,8.70
2024-02-13T23:33:59.955Z,8.71
2024-02-13T23:34:59.657Z,8.68
2024-02-13T23:35:59.571Z,8.70
2024-02-13T23:36:59.534Z,8.71
2024-02-13T23:37:59.523Z,8.71
2024-02-13T23:38:59.530Z,8.70
2024-02-13T23:39:59.477Z,8.68
2024-02-13T23:40:59.486Z,8.66
2024-02-13T23:41:59.522Z,8.66
2024-02-13T23:42:59.443Z,8.65
2024-02-13T23:43:59.458Z,8.62
2024-02-13T23:44:59.536Z,8.66
2024-02-13T23:45:59.426Z,8.65
2024-02-13T23:46:59.408Z,8.63
2024-02-13T23:47:59.445Z,8.63
2024-02-13T23:59:58.732Z,8.70
